sensor_id;sensor_type;location;lat;lon;timestamp;P1;durP1;ratioP1;P2;durP2;ratioP2
19566;SDS011;9930;49.240;8.548;2023-03-13T00:01:35;4.82;;;2.20;;
19566;SDS011;9930;49.240;8.548;2023-03-13T00:04:05;5.45;;;2.17;;
19566;SDS011;9930;49.240;8.548;2023-03-13T00:06:32;6.18;;;2.05;;
19566;SDS011;9930;49.240;8.548;2023-03-13T00:09:06;5.95;;;2.30;;
19566;SDS011;9930;49.240;8.548;2023-03-13T00:11:36;6.63;;;2.25;;
19566;SDS011;9930;49.240;8.548;2023-03-13T00:14:03;5.43;;;2.15;;
19566;SDS011;9930;49.240;8.548;2023-03-13T00:16:34;3.50;;;1.83;;
19566;SDS011;9930;49.240;8.548;2023-03-13T00:19:01;4.70;;;2.22;;
19566;SDS011;9930;49.240;8.548;2023-03-13T00:21:29;6.30;;;2.38;;
19566;SDS011;9930;49.240;8.548;2023-03-13T00:23:56;6.72;;;2.65;;
19566;SDS011;9930;49.240;8.548;2023-03-13T00:26:26;6.53;;;2.30;;
19566;SDS011;9930;49.240;8.548;2023-03-13T00:28:54;4.15;;;2.33;;
19566;SDS011;9930;49.240;8.548;2023-03-13T00:31:27;4.65;;;2.05;;
19566;SDS011;9930;49.240;8.548;2023-03-13T00:34:01;4.45;;;2.08;;
19566;SDS011;9930;49.240;8.548;2023-03-13T00:36:29;4.38;;;2.40;;
19566;SDS011;9930;49.240;8.548;2023-03-13T00:38:58;4.43;;;2.13;;
19566;SDS011;9930;49.240;8.548;2023-03-13T00:41:28;4.95;;;2.03;;
19566;SDS011;9930;49.240;8.548;2023-03-13T00:43:57;4.82;;;2.30;;
19566;SDS011;9930;49.240;8.548;2023-03-13T00:46:24;6.88;;;2.40;;
19566;SDS011;9930;49.240;8.548;2023-03-13T00:48:54;7.03;;;2.15;;
19566;SDS011;9930;49.240;8.548;2023-03-13T00:51:21;4.53;;;2.15;;
19566;SDS011;9930;49.240;8.548;2023-03-13T00:53:52;5.43;;;2.28;;
19566;SDS011;9930;49.240;8.548;2023-03-13T00:56:23;6.18;;;2.28;;
19566;SDS011;9930;49.240;8.548;2023-03-13T00:58:50;4.28;;;2.17;;
19566;SDS011;9930;49.240;8.548;2023-03-13T01:01:23;5.38;;;2.22;;
19566;SDS011;9930;49.240;8.548;2023-03-13T01:03:53;3.10;;;2.03;;
19566;SDS011;9930;49.240;8.548;2023-03-13T01:06:23;3.70;;;1.95;;
19566;SDS011;9930;49.240;8.548;2023-03-13T01:08:53;5.35;;;2.42;;
19566;SDS011;9930;49.240;8.548;2023-03-13T01:11:20;4.05;;;2.15;;
19566;SDS011;9930;49.240;8.548;2023-03-13T01:13:54;5.35;;;2.38;;
19566;SDS011;9930;49.240;8.548;2023-03-13T01:16:25;6.72;;;2.22;;
19566;SDS011;9930;49.240;8.548;2023-03-13T01:18:55;4.50;;;2.10;;
19566;SDS011;9930;49.240;8.548;2023-03-13T01:21:25;5.70;;;2.35;;
19566;SDS011;9930;49.240;8.548;2023-03-13T01:23:51;6.00;;;2.60;;
19566;SDS011;9930;49.240;8.548;2023-03-13T01:26:18;5.55;;;2.28;;
19566;SDS011;9930;49.240;8.548;2023-03-13T01:28:46;4.95;;;2.08;;
19566;SDS011;9930;49.240;8.548;2023-03-13T01:31:12;4.88;;;1.95;;
19566;SDS011;9930;49.240;8.548;2023-03-13T01:33:53;6.80;;;2.10;;
19566;SDS011;9930;49.240;8.548;2023-03-13T01:36:27;5.40;;;2.05;;
19566;SDS011;9930;49.240;8.548;2023-03-13T01:38:56;4.40;;;2.10;;
19566;SDS011;9930;49.240;8.548;2023-03-13T01:41:25;4.60;;;2.10;;
19566;SDS011;9930;49.240;8.548;2023-03-13T01:43:53;5.07;;;2.08;;
19566;SDS011;9930;49.240;8.548;2023-03-13T01:46:22;3.92;;;1.83;;
19566;SDS011;9930;49.240;8.548;2023-03-13T01:51:32;4.80;;;1.98;;
19566;SDS011;9930;49.240;8.548;2023-03-13T01:54:07;4.57;;;1.90;;
19566;SDS011;9930;49.240;8.548;2023-03-13T01:57:11;3.40;;;1.65;;
19566;SDS011;9930;49.240;8.548;2023-03-13T01:59:50;3.70;;;2.00;;
19566;SDS011;9930;49.240;8.548;2023-03-13T02:02:24;4.47;;;2.20;;
19566;SDS011;9930;49.240;8.548;2023-03-13T02:04:53;5.30;;;2.17;;
19566;SDS011;9930;49.240;8.548;2023-03-13T02:10:26;4.25;;;2.08;;
19566;SDS011;9930;49.240;8.548;2023-03-13T02:12:56;4.43;;;2.03;;
19566;SDS011;9930;49.240;8.548;2023-03-13T02:15:25;5.07;;;1.70;;
19566;SDS011;9930;49.240;8.548;2023-03-13T02:17:53;5.00;;;1.63;;
19566;SDS011;9930;49.240;8.548;2023-03-13T02:20:20;4.32;;;1.73;;
19566;SDS011;9930;49.240;8.548;2023-03-13T02:25:43;3.70;;;1.70;;
19566;SDS011;9930;49.240;8.548;2023-03-13T02:28:26;4.15;;;1.98;;
19566;SDS011;9930;49.240;8.548;2023-03-13T02:30:59;4.95;;;2.00;;
19566;SDS011;9930;49.240;8.548;2023-03-13T02:33:29;4.45;;;2.00;;
19566;SDS011;9930;49.240;8.548;2023-03-13T02:36:01;3.47;;;1.67;;
19566;SDS011;9930;49.240;8.548;2023-03-13T02:38:32;2.80;;;1.60;;
19566;SDS011;9930;49.240;8.548;2023-03-13T02:41:05;5.68;;;1.80;;
19566;SDS011;9930;49.240;8.548;2023-03-13T02:43:33;2.70;;;1.58;;
19566;SDS011;9930;49.240;8.548;2023-03-13T02:46:04;4.30;;;1.50;;
19566;SDS011;9930;49.240;8.548;2023-03-13T02:48:37;2.60;;;1.52;;
19566;SDS011;9930;49.240;8.548;2023-03-13T02:53:59;3.28;;;1.33;;
19566;SDS011;9930;49.240;8.548;2023-03-13T02:56:32;2.95;;;1.65;;
19566;SDS011;9930;49.240;8.548;2023-03-13T02:59:01;3.80;;;1.48;;
19566;SDS011;9930;49.240;8.548;2023-03-13T03:01:30;2.13;;;1.20;;
19566;SDS011;9930;49.240;8.548;2023-03-13T03:03:57;2.13;;;1.23;;
19566;SDS011;9930;49.240;8.548;2023-03-13T03:06:22;3.47;;;1.40;;
19566;SDS011;9930;49.240;8.548;2023-03-13T03:08:50;2.38;;;1.40;;
19566;SDS011;9930;49.240;8.548;2023-03-13T03:11:20;2.90;;;1.50;;
19566;SDS011;9930;49.240;8.548;2023-03-13T03:13:46;3.25;;;1.40;;
19566;SDS011;9930;49.240;8.548;2023-03-13T03:16:12;1.75;;;1.10;;
19566;SDS011;9930;49.240;8.548;2023-03-13T03:18:44;1.60;;;1.20;;
19566;SDS011;9930;49.240;8.548;2023-03-13T03:21:13;4.88;;;1.55;;
19566;SDS011;9930;49.240;8.548;2023-03-13T03:23:41;2.67;;;1.38;;
19566;SDS011;9930;49.240;8.548;2023-03-13T03:26:06;4.03;;;1.45;;
19566;SDS011;9930;49.240;8.548;2023-03-13T03:28:32;2.20;;;1.27;;
19566;SDS011;9930;49.240;8.548;2023-03-13T03:31:05;2.83;;;1.20;;
19566;SDS011;9930;49.240;8.548;2023-03-13T03:33:33;3.42;;;1.52;;
19566;SDS011;9930;49.240;8.548;2023-03-13T03:36:12;1.92;;;1.20;;
19566;SDS011;9930;49.240;8.548;2023-03-13T03:38:42;2.67;;;1.20;;
19566;SDS011;9930;49.240;8.548;2023-03-13T03:41:09;2.60;;;1.30;;
19566;SDS011;9930;49.240;8.548;2023-03-13T03:43:40;2.80;;;1.20;;
19566;SDS011;9930;49.240;8.548;2023-03-13T03:46:09;2.45;;;1.20;;
19566;SDS011;9930;49.240;8.548;2023-03-13T03:48:35;2.08;;;1.08;;
19566;SDS011;9930;49.240;8.548;2023-03-13T03:51:04;2.35;;;1.05;;
19566;SDS011;9930;49.240;8.548;2023-03-13T03:53:32;1.95;;;1.10;;
19566;SDS011;9930;49.240;8.548;2023-03-13T03:55:58;1.98;;;1.02;;
19566;SDS011;9930;49.240;8.548;2023-03-13T03:58:28;1.67;;;1.10;;
19566;SDS011;9930;49.240;8.548;2023-03-13T04:00:55;1.83;;;1.20;;
19566;SDS011;9930;49.240;8.548;2023-03-13T04:03:22;1.40;;;1.02;;
19566;SDS011;9930;49.240;8.548;2023-03-13T04:05:54;2.00;;;0.93;;
19566;SDS011;9930;49.240;8.548;2023-03-13T04:08:31;1.70;;;1.17;;
19566;SDS011;9930;49.240;8.548;2023-03-13T04:10:59;1.05;;;0.77;;
19566;SDS011;9930;49.240;8.548;2023-03-13T04:13:30;1.40;;;0.95;;
19566;SDS011;9930;49.240;8.548;2023-03-13T04:15:55;1.92;;;1.23;;
19566;SDS011;9930;49.240;8.548;2023-03-13T04:18:23;3.03;;;1.50;;
19566;SDS011;9930;49.240;8.548;2023-03-13T04:20:49;1.75;;;1.05;;
19566;SDS011;9930;49.240;8.548;2023-03-13T04:23:24;1.73;;;0.80;;
19566;SDS011;9930;49.240;8.548;2023-03-13T04:25:50;2.95;;;1.00;;
19566;SDS011;9930;49.240;8.548;2023-03-13T04:28:18;1.77;;;1.27;;
19566;SDS011;9930;49.240;8.548;2023-03-13T04:30:48;2.05;;;0.88;;
19566;SDS011;9930;49.240;8.548;2023-03-13T04:33:16;2.40;;;1.05;;
19566;SDS011;9930;49.240;8.548;2023-03-13T04:35:44;1.83;;;1.10;;
19566;SDS011;9930;49.240;8.548;2023-03-13T04:38:10;2.05;;;0.98;;
19566;SDS011;9930;49.240;8.548;2023-03-13T04:40:36;1.70;;;1.08;;
19566;SDS011;9930;49.240;8.548;2023-03-13T04:43:04;2.17;;;1.30;;
19566;SDS011;9930;49.240;8.548;2023-03-13T04:45:32;1.50;;;1.10;;
19566;SDS011;9930;49.240;8.548;2023-03-13T04:48:00;1.70;;;1.08;;
19566;SDS011;9930;49.240;8.548;2023-03-13T04:50:26;1.15;;;0.90;;
19566;SDS011;9930;49.240;8.548;2023-03-13T04:52:54;1.52;;;1.00;;
19566;SDS011;9930;49.240;8.548;2023-03-13T04:55:25;2.10;;;1.10;;
19566;SDS011;9930;49.240;8.548;2023-03-13T04:57:50;1.75;;;1.02;;
19566;SDS011;9930;49.240;8.548;2023-03-13T05:00:16;1.15;;;0.90;;
19566;SDS011;9930;49.240;8.548;2023-03-13T05:02:42;3.28;;;1.20;;
19566;SDS011;9930;49.240;8.548;2023-03-13T05:05:10;1.10;;;0.82;;
19566;SDS011;9930;49.240;8.548;2023-03-13T05:07:35;2.35;;;1.10;;
19566;SDS011;9930;49.240;8.548;2023-03-13T05:10:03;1.35;;;1.00;;
19566;SDS011;9930;49.240;8.548;2023-03-13T05:12:29;1.13;;;1.00;;
19566;SDS011;9930;49.240;8.548;2023-03-13T05:14:57;1.75;;;1.05;;
19566;SDS011;9930;49.240;8.548;2023-03-13T05:17:23;1.98;;;1.00;;
19566;SDS011;9930;49.240;8.548;2023-03-13T05:19:53;2.10;;;1.10;;
19566;SDS011;9930;49.240;8.548;2023-03-13T05:22:19;1.35;;;0.98;;
19566;SDS011;9930;49.240;8.548;2023-03-13T05:24:45;1.88;;;1.08;;
19566;SDS011;9930;49.240;8.548;2023-03-13T05:27:11;1.30;;;0.90;;
19566;SDS011;9930;49.240;8.548;2023-03-13T05:29:36;2.15;;;1.17;;
19566;SDS011;9930;49.240;8.548;2023-03-13T05:32:04;2.17;;;0.90;;
19566;SDS011;9930;49.240;8.548;2023-03-13T05:34:30;1.40;;;1.13;;
19566;SDS011;9930;49.240;8.548;2023-03-13T05:36:58;0.85;;;0.80;;
19566;SDS011;9930;49.240;8.548;2023-03-13T05:39:24;1.45;;;1.00;;
19566;SDS011;9930;49.240;8.548;2023-03-13T05:41:51;1.30;;;0.95;;
19566;SDS011;9930;49.240;8.548;2023-03-13T05:44:21;1.15;;;0.90;;
19566;SDS011;9930;49.240;8.548;2023-03-13T05:46:47;0.90;;;0.80;;
19566;SDS011;9930;49.240;8.548;2023-03-13T05:49:15;1.33;;;0.90;;
19566;SDS011;9930;49.240;8.548;2023-03-13T05:51:43;1.08;;;0.80;;
19566;SDS011;9930;49.240;8.548;2023-03-13T05:54:11;1.75;;;0.85;;
19566;SDS011;9930;49.240;8.548;2023-03-13T05:56:37;1.52;;;0.95;;
19566;SDS011;9930;49.240;8.548;2023-03-13T05:59:02;1.42;;;0.88;;
19566;SDS011;9930;49.240;8.548;2023-03-13T06:01:28;1.10;;;0.90;;
19566;SDS011;9930;49.240;8.548;2023-03-13T06:03:56;1.70;;;0.93;;
19566;SDS011;9930;49.240;8.548;2023-03-13T06:06:24;1.42;;;1.05;;
19566;SDS011;9930;49.240;8.548;2023-03-13T06:08:54;2.40;;;0.95;;
19566;SDS011;9930;49.240;8.548;2023-03-13T06:11:20;1.25;;;1.10;;
19566;SDS011;9930;49.240;8.548;2023-03-13T06:13:49;1.88;;;1.70;;
19566;SDS011;9930;49.240;8.548;2023-03-13T06:16:19;1.05;;;0.93;;
19566;SDS011;9930;49.240;8.548;2023-03-13T06:18:49;0.80;;;0.80;;
19566;SDS011;9930;49.240;8.548;2023-03-13T06:21:19;1.92;;;1.20;;
19566;SDS011;9930;49.240;8.548;2023-03-13T06:23:48;1.33;;;0.90;;
19566;SDS011;9930;49.240;8.548;2023-03-13T06:26:15;1.05;;;0.90;;
19566;SDS011;9930;49.240;8.548;2023-03-13T06:28:41;1.85;;;0.73;;
19566;SDS011;9930;49.240;8.548;2023-03-13T06:31:06;0.90;;;0.77;;
19566;SDS011;9930;49.240;8.548;2023-03-13T06:33:39;0.80;;;0.80;;
19566;SDS011;9930;49.240;8.548;2023-03-13T06:36:05;0.80;;;0.80;;
19566;SDS011;9930;49.240;8.548;2023-03-13T06:38:32;1.40;;;0.80;;
19566;SDS011;9930;49.240;8.548;2023-03-13T06:40:57;0.90;;;0.90;;
19566;SDS011;9930;49.240;8.548;2023-03-13T06:43:23;0.60;;;0.60;;
19566;SDS011;9930;49.240;8.548;2023-03-13T06:45:50;0.88;;;0.88;;
19566;SDS011;9930;49.240;8.548;2023-03-13T06:48:17;0.70;;;0.70;;
19566;SDS011;9930;49.240;8.548;2023-03-13T06:50:43;1.45;;;0.75;;
19566;SDS011;9930;49.240;8.548;2023-03-13T06:53:13;0.63;;;0.63;;
19566;SDS011;9930;49.240;8.548;2023-03-13T06:55:41;0.80;;;0.80;;
19566;SDS011;9930;49.240;8.548;2023-03-13T06:58:08;0.60;;;0.60;;
19566;SDS011;9930;49.240;8.548;2023-03-13T07:00:38;0.77;;;0.73;;
19566;SDS011;9930;49.240;8.548;2023-03-13T07:03:08;1.67;;;0.80;;
19566;SDS011;9930;49.240;8.548;2023-03-13T07:05:38;0.70;;;0.70;;
19566;SDS011;9930;49.240;8.548;2023-03-13T07:08:04;0.70;;;0.70;;
19566;SDS011;9930;49.240;8.548;2023-03-13T07:10:33;0.70;;;0.70;;
19566;SDS011;9930;49.240;8.548;2023-03-13T07:12:59;0.70;;;0.70;;
19566;SDS011;9930;49.240;8.548;2023-03-13T07:15:27;1.55;;;0.70;;
19566;SDS011;9930;49.240;8.548;2023-03-13T07:17:55;0.82;;;0.80;;
19566;SDS011;9930;49.240;8.548;2023-03-13T07:20:23;1.02;;;0.90;;
19566;SDS011;9930;49.240;8.548;2023-03-13T07:22:50;1.30;;;1.20;;
19566;SDS011;9930;49.240;8.548;2023-03-13T07:25:17;2.00;;;1.73;;
19566;SDS011;9930;49.240;8.548;2023-03-13T07:27:47;1.65;;;1.20;;
19566;SDS011;9930;49.240;8.548;2023-03-13T07:30:17;2.00;;;1.65;;
19566;SDS011;9930;49.240;8.548;2023-03-13T07:32:46;2.40;;;2.20;;
19566;SDS011;9930;49.240;8.548;2023-03-13T07:35:12;6.32;;;5.68;;
19566;SDS011;9930;49.240;8.548;2023-03-13T07:37:40;8.55;;;7.65;;
19566;SDS011;9930;49.240;8.548;2023-03-13T07:40:09;6.70;;;6.10;;
19566;SDS011;9930;49.240;8.548;2023-03-13T07:42:38;4.72;;;4.32;;
19566;SDS011;9930;49.240;8.548;2023-03-13T07:45:05;3.22;;;3.03;;
19566;SDS011;9930;49.240;8.548;2023-03-13T07:47:33;1.80;;;1.70;;
19566;SDS011;9930;49.240;8.548;2023-03-13T07:49:59;1.27;;;1.17;;
19566;SDS011;9930;49.240;8.548;2023-03-13T07:52:25;1.13;;;1.05;;
19566;SDS011;9930;49.240;8.548;2023-03-13T07:54:53;0.90;;;0.90;;
19566;SDS011;9930;49.240;8.548;2023-03-13T07:57:20;0.80;;;0.80;;
19566;SDS011;9930;49.240;8.548;2023-03-13T07:59:55;0.70;;;0.70;;
19566;SDS011;9930;49.240;8.548;2023-03-13T08:02:21;0.80;;;0.80;;
19566;SDS011;9930;49.240;8.548;2023-03-13T08:04:56;0.80;;;0.80;;
19566;SDS011;9930;49.240;8.548;2023-03-13T08:07:22;0.77;;;0.70;;
19566;SDS011;9930;49.240;8.548;2023-03-13T08:09:49;1.40;;;0.70;;
19566;SDS011;9930;49.240;8.548;2023-03-13T08:12:15;1.08;;;0.80;;
19566;SDS011;9930;49.240;8.548;2023-03-13T08:14:41;2.40;;;1.05;;
19566;SDS011;9930;49.240;8.548;2023-03-13T08:17:07;0.70;;;0.52;;
19566;SDS011;9930;49.240;8.548;2023-03-13T08:19:32;1.27;;;0.75;;
19566;SDS011;9930;49.240;8.548;2023-03-13T08:21:58;0.80;;;0.70;;
19566;SDS011;9930;49.240;8.548;2023-03-13T08:24:26;1.42;;;1.10;;
19566;SDS011;9930;49.240;8.548;2023-03-13T08:26:51;0.75;;;0.75;;
19566;SDS011;9930;49.240;8.548;2023-03-13T08:29:18;0.60;;;0.60;;
19566;SDS011;9930;49.240;8.548;2023-03-13T08:31:44;0.88;;;0.77;;
19566;SDS011;9930;49.240;8.548;2023-03-13T08:34:20;0.65;;;0.65;;
19566;SDS011;9930;49.240;8.548;2023-03-13T08:36:46;0.70;;;0.70;;
19566;SDS011;9930;49.240;8.548;2023-03-13T08:39:13;1.08;;;0.80;;
19566;SDS011;9930;49.240;8.548;2023-03-13T08:41:42;1.00;;;0.90;;
19566;SDS011;9930;49.240;8.548;2023-03-13T08:44:13;0.70;;;0.70;;
19566;SDS011;9930;49.240;8.548;2023-03-13T08:46:42;0.75;;;0.75;;
19566;SDS011;9930;49.240;8.548;2023-03-13T08:49:09;0.70;;;0.70;;
19566;SDS011;9930;49.240;8.548;2023-03-13T08:51:36;0.77;;;0.75;;
19566;SDS011;9930;49.240;8.548;2023-03-13T08:54:02;1.45;;;1.02;;
19566;SDS011;9930;49.240;8.548;2023-03-13T08:56:31;1.40;;;0.70;;
19566;SDS011;9930;49.240;8.548;2023-03-13T08:59:01;1.90;;;0.90;;
19566;SDS011;9930;49.240;8.548;2023-03-13T09:01:34;2.28;;;0.85;;
19566;SDS011;9930;49.240;8.548;2023-03-13T09:04:03;1.10;;;1.00;;
19566;SDS011;9930;49.240;8.548;2023-03-13T09:06:31;1.05;;;0.95;;
19566;SDS011;9930;49.240;8.548;2023-03-13T09:08:59;2.05;;;0.90;;
19566;SDS011;9930;49.240;8.548;2023-03-13T09:11:28;0.80;;;0.80;;
19566;SDS011;9930;49.240;8.548;2023-03-13T09:13:54;0.77;;;0.77;;
19566;SDS011;9930;49.240;8.548;2023-03-13T09:16:23;0.80;;;0.80;;
19566;SDS011;9930;49.240;8.548;2023-03-13T09:18:55;1.13;;;0.80;;
19566;SDS011;9930;49.240;8.548;2023-03-13T09:21:32;1.40;;;0.98;;
19566;SDS011;9930;49.240;8.548;2023-03-13T09:24:00;0.90;;;0.90;;
19566;SDS011;9930;49.240;8.548;2023-03-13T09:26:26;1.15;;;1.05;;
19566;SDS011;9930;49.240;8.548;2023-03-13T09:28:53;1.38;;;0.90;;
19566;SDS011;9930;49.240;8.548;2023-03-13T09:31:23;0.90;;;0.82;;
19566;SDS011;9930;49.240;8.548;2023-03-13T09:33:53;1.30;;;0.77;;
19566;SDS011;9930;49.240;8.548;2023-03-13T09:36:22;1.35;;;1.00;;
19566;SDS011;9930;49.240;8.548;2023-03-13T09:38:49;1.58;;;1.02;;
19566;SDS011;9930;49.240;8.548;2023-03-13T09:46:54;0.95;;;0.90;;
19566;SDS011;9930;49.240;8.548;2023-03-13T09:57:52;1.75;;;1.00;;
19566;SDS011;9930;49.240;8.548;2023-03-13T10:00:50;1.52;;;1.42;;
19566;SDS011;9930;49.240;8.548;2023-03-13T10:06:17;1.15;;;1.05;;
19566;SDS011;9930;49.240;8.548;2023-03-13T10:08:47;1.27;;;1.17;;
19566;SDS011;9930;49.240;8.548;2023-03-13T10:19:25;1.55;;;1.30;;
19566;SDS011;9930;49.240;8.548;2023-03-13T10:21:59;1.35;;;0.85;;
19566;SDS011;9930;49.240;8.548;2023-03-13T10:24:37;1.30;;;1.20;;
19566;SDS011;9930;49.240;8.548;2023-03-13T10:27:24;1.30;;;1.20;;
19566;SDS011;9930;49.240;8.548;2023-03-13T10:29:50;1.55;;;0.95;;
19566;SDS011;9930;49.240;8.548;2023-03-13T10:32:19;3.03;;;1.30;;
19566;SDS011;9930;49.240;8.548;2023-03-13T10:34:57;1.00;;;0.90;;
19566;SDS011;9930;49.240;8.548;2023-03-13T10:37:41;1.20;;;1.10;;
19566;SDS011;9930;49.240;8.548;2023-03-13T10:40:21;1.50;;;1.40;;
19566;SDS011;9930;49.240;8.548;2023-03-13T10:42:52;1.30;;;1.20;;
19566;SDS011;9930;49.240;8.548;2023-03-13T10:45:30;1.25;;;1.15;;
19566;SDS011;9930;49.240;8.548;2023-03-13T10:48:02;1.00;;;1.00;;
19566;SDS011;9930;49.240;8.548;2023-03-13T10:50:54;2.67;;;1.08;;
19566;SDS011;9930;49.240;8.548;2023-03-13T10:56:18;1.08;;;1.00;;
19566;SDS011;9930;49.240;8.548;2023-03-13T10:58:51;2.20;;;1.55;;
19566;SDS011;9930;49.240;8.548;2023-03-13T11:01:24;2.05;;;1.50;;
19566;SDS011;9930;49.240;8.548;2023-03-13T11:04:17;1.40;;;1.30;;
19566;SDS011;9930;49.240;8.548;2023-03-13T11:07:03;1.27;;;1.15;;
19566;SDS011;9930;49.240;8.548;2023-03-13T11:09:30;1.23;;;1.10;;
19566;SDS011;9930;49.240;8.548;2023-03-13T11:12:41;1.58;;;1.20;;
19566;SDS011;9930;49.240;8.548;2023-03-13T11:14:50;1.20;;;1.05;;
19566;SDS011;9930;49.240;8.548;2023-03-13T11:17:39;1.27;;;1.10;;
19566;SDS011;9930;49.240;8.548;2023-03-13T11:22:53;1.25;;;1.15;;
19566;SDS011;9930;49.240;8.548;2023-03-13T11:30:56;1.38;;;1.27;;
19566;SDS011;9930;49.240;8.548;2023-03-13T11:36:15;1.23;;;1.13;;
19566;SDS011;9930;49.240;8.548;2023-03-13T11:58:40;1.40;;;1.25;;
19566;SDS011;9930;49.240;8.548;2023-03-13T12:01:31;1.20;;;1.10;;
19566;SDS011;9930;49.240;8.548;2023-03-13T12:09:59;1.50;;;1.30;;
19566;SDS011;9930;49.240;8.548;2023-03-13T12:15:49;1.42;;;1.33;;
19566;SDS011;9930;49.240;8.548;2023-03-13T12:18:33;1.67;;;1.20;;
19566;SDS011;9930;49.240;8.548;2023-03-13T12:26:57;1.40;;;1.30;;
19566;SDS011;9930;49.240;8.548;2023-03-13T12:32:38;3.05;;;2.75;;
19566;SDS011;9930;49.240;8.548;2023-03-13T12:35:29;1.42;;;1.23;;
19566;SDS011;9930;49.240;8.548;2023-03-13T12:43:52;1.30;;;1.20;;
19566;SDS011;9930;49.240;8.548;2023-03-13T12:57:23;1.80;;;1.70;;
19566;SDS011;9930;49.240;8.548;2023-03-13T13:00:24;1.98;;;1.60;;
19566;SDS011;9930;49.240;8.548;2023-03-13T13:05:58;1.40;;;1.30;;
19566;SDS011;9930;49.240;8.548;2023-03-13T13:08:34;1.63;;;1.38;;
19566;SDS011;9930;49.240;8.548;2023-03-13T13:28:51;1.17;;;1.10;;
19566;SDS011;9930;49.240;8.548;2023-03-13T13:36:54;1.10;;;1.00;;
19566;SDS011;9930;49.240;8.548;2023-03-13T13:39:38;1.00;;;1.00;;
19566;SDS011;9930;49.240;8.548;2023-03-13T13:47:41;1.33;;;1.17;;
19566;SDS011;9930;49.240;8.548;2023-03-13T13:50:23;1.27;;;1.10;;
19566;SDS011;9930;49.240;8.548;2023-03-13T13:52:52;1.23;;;1.13;;
19566;SDS011;9930;49.240;8.548;2023-03-13T13:55:57;0.90;;;0.90;;
19566;SDS011;9930;49.240;8.548;2023-03-13T13:58:34;1.00;;;1.00;;
19566;SDS011;9930;49.240;8.548;2023-03-13T14:01:13;1.02;;;1.02;;
19566;SDS011;9930;49.240;8.548;2023-03-13T14:03:40;1.00;;;1.00;;
19566;SDS011;9930;49.240;8.548;2023-03-13T14:08:41;1.08;;;0.98;;
19566;SDS011;9930;49.240;8.548;2023-03-13T14:11:34;1.15;;;1.08;;
19566;SDS011;9930;49.240;8.548;2023-03-13T14:19:28;2.05;;;1.85;;
19566;SDS011;9930;49.240;8.548;2023-03-13T14:22:08;1.67;;;1.30;;
19566;SDS011;9930;49.240;8.548;2023-03-13T14:24:38;1.75;;;1.23;;
19566;SDS011;9930;49.240;8.548;2023-03-13T14:27:21;1.20;;;1.10;;
19566;SDS011;9930;49.240;8.548;2023-03-13T14:30:08;1.23;;;1.13;;
19566;SDS011;9930;49.240;8.548;2023-03-13T14:32:33;1.20;;;1.10;;
19566;SDS011;9930;49.240;8.548;2023-03-13T14:35:00;1.17;;;1.08;;
19566;SDS011;9930;49.240;8.548;2023-03-13T14:37:33;1.63;;;1.30;;
19566;SDS011;9930;49.240;8.548;2023-03-13T14:40:18;0.93;;;0.93;;
19566;SDS011;9930;49.240;8.548;2023-03-13T14:42:48;1.02;;;0.93;;
19566;SDS011;9930;49.240;8.548;2023-03-13T14:45:26;0.82;;;0.82;;
19566;SDS011;9930;49.240;8.548;2023-03-13T14:48:02;1.27;;;1.17;;
19566;SDS011;9930;49.240;8.548;2023-03-13T14:50:45;2.85;;;2.55;;
19566;SDS011;9930;49.240;8.548;2023-03-13T14:53:20;7.35;;;6.65;;
19566;SDS011;9930;49.240;8.548;2023-03-13T14:56:35;4.28;;;3.90;;
19566;SDS011;9930;49.240;8.548;2023-03-13T14:58:43;2.92;;;2.72;;
19566;SDS011;9930;49.240;8.548;2023-03-13T15:01:23;2.25;;;2.00;;
19566;SDS011;9930;49.240;8.548;2023-03-13T15:03:57;2.00;;;1.80;;
19566;SDS011;9930;49.240;8.548;2023-03-13T15:06:23;3.38;;;3.17;;
19566;SDS011;9930;49.240;8.548;2023-03-13T15:11:40;1.70;;;1.60;;
19566;SDS011;9930;49.240;8.548;2023-03-13T15:17:28;1.15;;;1.08;;
19566;SDS011;9930;49.240;8.548;2023-03-13T15:19:56;2.53;;;1.25;;
19566;SDS011;9930;49.240;8.548;2023-03-13T15:22:44;0.90;;;0.90;;
19566;SDS011;9930;49.240;8.548;2023-03-13T15:27:46;1.00;;;0.90;;
19566;SDS011;9930;49.240;8.548;2023-03-13T15:30:16;0.73;;;0.73;;
19566;SDS011;9930;49.240;8.548;2023-03-13T15:32:49;1.38;;;1.02;;
19566;SDS011;9930;49.240;8.548;2023-03-13T15:35:27;1.10;;;1.00;;
19566;SDS011;9930;49.240;8.548;2023-03-13T15:37:58;0.85;;;0.80;;
19566;SDS011;9930;49.240;8.548;2023-03-13T15:40:28;1.88;;;1.02;;
19566;SDS011;9930;49.240;8.548;2023-03-13T15:42:57;1.35;;;0.90;;
19566;SDS011;9930;49.240;8.548;2023-03-13T15:45:26;0.88;;;0.88;;
19566;SDS011;9930;49.240;8.548;2023-03-13T15:47:53;0.95;;;0.95;;
19566;SDS011;9930;49.240;8.548;2023-03-13T15:50:19;0.95;;;0.75;;
19566;SDS011;9930;49.240;8.548;2023-03-13T15:52:53;0.90;;;0.90;;
19566;SDS011;9930;49.240;8.548;2023-03-13T15:55:20;1.00;;;0.77;;
19566;SDS011;9930;49.240;8.548;2023-03-13T15:57:51;1.20;;;0.95;;
19566;SDS011;9930;49.240;8.548;2023-03-13T16:00:25;1.23;;;0.93;;
19566;SDS011;9930;49.240;8.548;2023-03-13T16:02:51;0.73;;;0.73;;
19566;SDS011;9930;49.240;8.548;2023-03-13T16:05:18;0.80;;;0.80;;
19566;SDS011;9930;49.240;8.548;2023-03-13T16:07:44;2.35;;;1.10;;
19566;SDS011;9930;49.240;8.548;2023-03-13T16:10:18;0.85;;;0.70;;
19566;SDS011;9930;49.240;8.548;2023-03-13T16:12:48;0.77;;;0.77;;
19566;SDS011;9930;49.240;8.548;2023-03-13T16:15:14;0.93;;;0.82;;
19566;SDS011;9930;49.240;8.548;2023-03-13T16:17:40;0.90;;;0.90;;
19566;SDS011;9930;49.240;8.548;2023-03-13T16:20:24;0.85;;;0.80;;
19566;SDS011;9930;49.240;8.548;2023-03-13T16:22:51;1.10;;;1.00;;
19566;SDS011;9930;49.240;8.548;2023-03-13T16:25:18;1.45;;;1.10;;
19566;SDS011;9930;49.240;8.548;2023-03-13T16:27:43;1.33;;;1.23;;
19566;SDS011;9930;49.240;8.548;2023-03-13T16:30:14;2.50;;;1.20;;
19566;SDS011;9930;49.240;8.548;2023-03-13T16:32:48;1.13;;;1.02;;
19566;SDS011;9930;49.240;8.548;2023-03-13T16:35:17;1.23;;;1.17;;
19566;SDS011;9930;49.240;8.548;2023-03-13T16:37:43;1.23;;;1.10;;
19566;SDS011;9930;49.240;8.548;2023-03-13T16:40:16;1.77;;;1.30;;
19566;SDS011;9930;49.240;8.548;2023-03-13T16:42:54;1.38;;;1.17;;
19566;SDS011;9930;49.240;8.548;2023-03-13T16:45:20;1.60;;;1.50;;
19566;SDS011;9930;49.240;8.548;2023-03-13T16:47:48;3.65;;;3.35;;
19566;SDS011;9930;49.240;8.548;2023-03-13T16:50:33;1.60;;;1.50;;
19566;SDS011;9930;49.240;8.548;2023-03-13T16:53:01;1.10;;;1.10;;
19566;SDS011;9930;49.240;8.548;2023-03-13T16:55:27;1.75;;;1.30;;
19566;SDS011;9930;49.240;8.548;2023-03-13T16:57:56;1.00;;;1.00;;
19566;SDS011;9930;49.240;8.548;2023-03-13T17:00:31;0.88;;;0.82;;
19566;SDS011;9930;49.240;8.548;2023-03-13T17:02:57;1.17;;;0.90;;
19566;SDS011;9930;49.240;8.548;2023-03-13T17:05:28;1.02;;;0.80;;
19566;SDS011;9930;49.240;8.548;2023-03-13T17:07:57;0.93;;;0.82;;
19566;SDS011;9930;49.240;8.548;2023-03-13T17:10:27;0.88;;;0.88;;
19566;SDS011;9930;49.240;8.548;2023-03-13T17:12:56;0.90;;;0.90;;
19566;SDS011;9930;49.240;8.548;2023-03-13T17:15:24;0.85;;;0.85;;
19566;SDS011;9930;49.240;8.548;2023-03-13T17:17:54;0.80;;;0.80;;
19566;SDS011;9930;49.240;8.548;2023-03-13T17:20:25;0.90;;;0.90;;
19566;SDS011;9930;49.240;8.548;2023-03-13T17:22:53;1.17;;;1.02;;
19566;SDS011;9930;49.240;8.548;2023-03-13T17:25:25;0.80;;;0.80;;
19566;SDS011;9930;49.240;8.548;2023-03-13T17:27:51;1.05;;;0.93;;
19566;SDS011;9930;49.240;8.548;2023-03-13T17:32:44;0.93;;;0.93;;
19566;SDS011;9930;49.240;8.548;2023-03-13T17:35:12;1.02;;;0.80;;
19566;SDS011;9930;49.240;8.548;2023-03-13T17:37:38;1.42;;;0.88;;
19566;SDS011;9930;49.240;8.548;2023-03-13T17:42:44;0.68;;;0.65;;
19566;SDS011;9930;49.240;8.548;2023-03-13T17:45:15;0.80;;;0.80;;
19566;SDS011;9930;49.240;8.548;2023-03-13T17:47:42;1.10;;;0.80;;
19566;SDS011;9930;49.240;8.548;2023-03-13T17:50:21;1.77;;;1.67;;
19566;SDS011;9930;49.240;8.548;2023-03-13T17:52:52;1.40;;;1.30;;
19566;SDS011;9930;49.240;8.548;2023-03-13T17:55:20;1.20;;;1.10;;
19566;SDS011;9930;49.240;8.548;2023-03-13T17:57:48;1.00;;;0.98;;
19566;SDS011;9930;49.240;8.548;2023-03-13T18:00:18;1.15;;;1.00;;